Byrd, Ohio
Current Conditions -  °F | °C
As of 8:15 AM on Thursday 27 Nov 2014 (Local Time) from KFGX Reporting Station
Overcast Overcast  
Wind Chill: 20°   Ceiling: 1300
Heat Index: 28°   Visibility: 7mi
Dew Point: 25°   Wind: 9mph
Humidity: 87%   Direction: 300°WNW
Pressure: 30.21"   Gusts: NA
Location:  38.8148°N, 83.7054°W
Report Text: KFGX 271315Z AUTO 30008KT 7SM BKN013 BKN019 OVC046 M02/M04 A3021 RMK AO2 T10201039
Loading
Personal Weather Stations






























Interactive Weather Map New forecast layout! Learn more

10-Day Weather Forecast

Advertisements
Track Severe Weather on mobile